Time;durP1;ratioP1;P1;durP2;ratioP2;P2;SDS_P1;SDS_P2;PMS_P1;PMS_P2;Temp;Humidity;BMP_temperature;BMP_pressure;BME280_temperature;BME280_humidity;BME280_pressure;Samples;Min_cycle;Max_cycle;Signal;HPM_P1;HPM_P2
2022/10/14 00:00:35;;;;;;;4.63;3.33;;;19.70;64.50;;;;;;6264960;22;20572;-70
2022/10/14 00:03:01;;;;;;;8.07;3.17;;;19.70;64.50;;;;;;6236738;22;20016;-71
2022/10/14 00:05:27;;;;;;;5.43;3.30;;;19.70;64.40;;;;;;6265285;22;20016;-71
2022/10/14 00:07:52;;;;;;;6.78;3.50;;;19.70;64.50;;;;;;6265756;22;20012;-71
2022/10/14 00:10:18;;;;;;;5.18;3.22;;;19.70;64.40;;;;;;6261474;22;20016;-70
2022/10/14 00:12:44;;;;;;;4.43;3.22;;;19.70;64.40;;;;;;6265428;22;20447;-70
2022/10/14 00:15:10;;;;;;;4.18;3.05;;;19.70;64.40;;;;;;6260956;22;20020;-69
2022/10/14 00:17:36;;;;;;;5.05;3.15;;;19.70;64.30;;;;;;6263770;22;20026;-70
2022/10/14 00:20:02;;;;;;;4.00;3.10;;;19.70;64.40;;;;;;6262038;22;21413;-70
2022/10/14 00:22:28;;;;;;;5.38;3.25;;;19.70;64.30;;;;;;6263411;22;20020;-69
2022/10/14 00:24:53;;;;;;;6.85;3.50;;;19.70;64.30;;;;;;6209927;22;20081;-70
2022/10/14 00:27:19;;;;;;;3.47;3.08;;;19.70;64.30;;;;;;6262137;22;20373;-72
2022/10/14 00:29:44;;;;;;;7.05;3.47;;;19.70;64.30;;;;;;6237631;22;20126;-71
2022/10/14 00:32:11;;;;;;;5.50;3.40;;;19.70;64.20;;;;;;6235617;22;20024;-71
2022/10/14 00:34:36;;;;;;;4.95;3.25;;;19.70;64.20;;;;;;6262385;22;20106;-71
2022/10/14 00:37:02;;;;;;;3.50;2.97;;;19.70;64.20;;;;;;6264323;22;20097;-71
2022/10/14 00:39:28;;;;;;;6.03;3.35;;;19.70;64.10;;;;;;6265721;22;20051;-72
2022/10/14 00:41:55;;;;;;;6.85;3.63;;;19.70;64.10;;;;;;6212929;22;20016;-71
2022/10/14 00:44:23;;;;;;;5.35;3.38;;;19.80;64.10;;;;;;6264493;22;20382;-72
2022/10/14 00:46:49;;;;;;;5.55;3.05;;;19.70;64.00;;;;;;6237024;22;20455;-72
2022/10/14 00:49:23;;;;;;;3.75;3.00;;;19.80;64.00;;;;;;6237095;22;20674;-72
2022/10/14 00:52:07;;;;;;;5.18;3.30;;;19.80;64.00;;;;;;6264876;22;20019;-72
2022/10/14 00:54:36;;;;;;;5.43;2.97;;;19.80;63.90;;;;;;6262572;22;20085;-72
2022/10/14 00:57:02;;;;;;;5.75;3.13;;;19.80;63.90;;;;;;6264424;22;20090;-72
2022/10/14 00:59:29;;;;;;;5.53;3.33;;;19.80;63.90;;;;;;6238173;22;20023;-71
2022/10/14 01:01:54;;;;;;;5.28;3.03;;;19.80;63.90;;;;;;6263872;22;20010;-72
2022/10/14 01:04:20;;;;;;;4.82;3.42;;;19.80;63.90;;;;;;6236442;22;20462;-70
2022/10/14 01:06:58;;;;;;;6.40;3.35;;;19.80;64.60;;;;;;6264981;22;20020;-72
2022/10/14 01:09:51;;;;;;;4.63;3.28;;;19.80;63.80;;;;;;6263532;22;20051;-70
2022/10/14 01:12:54;;;;;;;4.03;3.00;;;19.80;63.70;;;;;;6265038;22;20161;-70
2022/10/14 01:15:42;;;;;;;3.30;2.70;;;19.80;63.70;;;;;;6261729;22;20101;-71
2022/10/14 01:18:34;;;;;;;4.20;2.63;;;19.80;63.70;;;;;;6265911;22;20118;-71
2022/10/14 01:21:18;;;;;;;4.68;2.80;;;19.80;64.40;;;;;;6236344;22;20462;-70
2022/10/14 01:24:09;;;;;;;4.57;2.80;;;19.80;63.70;;;;;;6234396;22;20506;-71
2022/10/14 01:27:14;;;;;;;3.83;3.00;;;19.80;63.60;;;;;;6263805;22;20271;-71
2022/10/14 01:30:00;;;;;;;3.38;2.80;;;19.80;63.50;;;;;;6188420;22;20019;-69
2022/10/14 01:32:49;;;;;;;4.35;2.50;;;19.80;63.50;;;;;;6262647;22;20016;-71
2022/10/14 01:35:35;;;;;;;3.67;2.33;;;19.80;63.50;;;;;;6263436;22;20296;-71
2022/10/14 01:38:09;;;;;;;3.45;2.60;;;19.80;63.60;;;;;;6263944;22;20024;-71
2022/10/14 01:40:59;;;;;;;3.53;2.40;;;19.80;63.50;;;;;;6235246;22;20359;-70
2022/10/14 01:43:28;;;;;;;2.30;2.10;;;19.80;63.50;;;;;;6235934;22;20022;-72
2022/10/14 01:45:56;;;;;;;3.13;2.30;;;19.70;63.60;;;;;;6235119;22;20059;-69
2022/10/14 01:48:25;;;;;;;3.42;2.50;;;19.70;63.50;;;;;;6263652;22;20062;-70
2022/10/14 01:50:53;;;;;;;4.13;2.65;;;19.70;63.50;;;;;;6263204;22;20142;-72
2022/10/14 01:53:27;;;;;;;3.30;2.30;;;19.70;64.20;;;;;;6235600;22;20030;-69
2022/10/14 01:55:56;;;;;;;3.25;2.35;;;19.70;63.50;;;;;;6263637;22;20730;-71
2022/10/14 01:58:25;;;;;;;3.15;2.30;;;19.70;63.50;;;;;;6263058;22;20004;-71
2022/10/14 02:00:51;;;;;;;3.13;2.33;;;19.70;63.40;;;;;;6236743;22;20021;-69
2022/10/14 02:03:16;;;;;;;3.25;2.40;;;19.70;63.40;;;;;;6234092;22;20110;-70
2022/10/14 02:05:49;;;;;;;3.90;2.03;;;19.70;64.20;;;;;;6264266;22;20377;-69
2022/10/14 02:08:42;;;;;;;2.95;2.22;;;19.70;63.40;;;;;;6262953;22;20447;-72
2022/10/14 02:11:14;;;;;;;2.92;2.50;;;19.70;63.40;;;;;;6262749;22;20012;-70
2022/10/14 02:13:54;;;;;;;2.97;2.10;;;19.70;63.40;;;;;;6263821;22;20019;-71
2022/10/14 02:16:39;;;;;;;2.63;2.10;;;19.70;63.30;;;;;;6260176;22;20035;-71
2022/10/14 02:19:25;;;;;;;2.60;2.05;;;19.70;63.30;;;;;;6263979;22;20363;-71
2022/10/14 02:22:01;;;;;;;2.95;2.05;;;19.70;63.30;;;;;;6264636;22;20019;-71
2022/10/14 02:24:32;;;;;;;3.60;2.20;;;19.70;63.30;;;;;;6261288;22;20158;-72
2022/10/14 02:27:05;;;;;;;3.17;2.08;;;19.70;63.30;;;;;;6264447;22;20020;-69
2022/10/14 02:29:33;;;;;;;2.47;2.10;;;19.70;63.30;;;;;;6235898;22;20019;-70
2022/10/14 02:32:01;;;;;;;3.83;2.10;;;19.70;63.30;;;;;;6235682;22;20019;-70
2022/10/14 02:34:27;;;;;;;;;;;19.70;63.30;;;;;;6236945;22;20602;-70
2022/10/14 02:36:54;;;;;;;2.65;2.10;;;19.70;63.20;;;;;;6262308;22;19923;-71
2022/10/14 02:39:26;;;;;;;2.55;2.03;;;19.60;63.20;;;;;;6262264;22;20309;-72
2022/10/14 02:41:52;;;;;;;2.22;1.88;;;19.70;63.20;;;;;;6261072;22;20022;-69
2022/10/14 02:44:18;;;;;;;2.40;1.55;;;19.70;63.20;;;;;;6264345;22;20012;-70
2022/10/14 02:46:43;;;;;;;3.20;1.77;;;19.70;63.20;;;;;;6259735;22;20104;-70
2022/10/14 02:49:09;;;;;;;2.25;1.65;;;19.70;63.20;;;;;;6259734;22;20020;-70
2022/10/14 02:51:34;;;;;;;2.13;1.83;;;19.70;63.20;;;;;;6263267;22;20020;-68
2022/10/14 02:54:01;;;;;;;4.13;1.77;;;19.60;63.10;;;;;;6261890;22;20020;-69
2022/10/14 02:56:27;;;;;;;2.15;1.70;;;19.60;63.10;;;;;;6262234;22;20015;-70
2022/10/14 02:58:52;;;;;;;2.45;1.83;;;19.60;63.10;;;;;;6262422;22;20030;-71
2022/10/14 03:01:18;;;;;;;1.77;1.67;;;19.60;63.80;;;;;;6261950;22;20023;-69
2022/10/14 03:03:43;;;;;;;2.08;1.70;;;19.60;63.10;;;;;;6235807;22;20027;-71
2022/10/14 03:06:09;;;;;;;2.50;1.65;;;19.60;63.10;;;;;;6263372;22;20046;-71
2022/10/14 03:08:34;;;;;;;2.42;1.90;;;19.60;63.10;;;;;;6264867;22;20024;-70
2022/10/14 03:11:00;;;;;;;1.73;1.55;;;19.60;63.10;;;;;;6264365;22;20524;-72
2022/10/14 03:13:26;;;;;;;2.20;1.55;;;19.60;63.00;;;;;;6264742;22;20089;-70
2022/10/14 03:15:51;;;;;;;2.17;1.75;;;19.60;63.00;;;;;;6264843;22;20025;-69
2022/10/14 03:18:17;;;;;;;1.77;1.67;;;19.60;63.00;;;;;;6236685;22;20425;-68
2022/10/14 03:20:43;;;;;;;2.08;1.60;;;19.60;63.00;;;;;;6235020;22;20020;-69
2022/10/14 03:23:10;;;;;;;3.08;1.88;;;19.60;63.00;;;;;;6264826;22;20038;-69
2022/10/14 03:25:35;;;;;;;1.95;1.55;;;19.60;63.00;;;;;;6235391;22;20436;-67
2022/10/14 03:28:01;;;;;;;1.90;1.60;;;19.60;63.00;;;;;;6265280;22;20035;-67
2022/10/14 03:30:27;;;;;;;1.52;1.42;;;19.60;63.00;;;;;;6236036;22;20018;-70
2022/10/14 03:32:52;;;;;;;3.03;1.50;;;19.60;63.00;;;;;;6264461;22;20768;-67
2022/10/14 03:35:18;;;;;;;1.98;1.58;;;19.60;63.00;;;;;;6263430;22;20024;-68
2022/10/14 03:37:43;;;;;;;1.88;1.40;;;19.60;63.00;;;;;;6237099;22;20020;-69
2022/10/14 03:40:10;;;;;;;1.80;1.48;;;19.60;62.90;;;;;;6237131;22;20020;-69
2022/10/14 03:42:35;;;;;;;1.48;1.20;;;19.60;62.90;;;;;;6263509;22;20470;-69
2022/10/14 03:45:01;;;;;;;2.33;1.67;;;19.60;62.90;;;;;;6261740;22;20012;-68
2022/10/14 03:47:27;;;;;;;2.50;1.60;;;19.60;62.90;;;;;;6261346;22;20027;-68
2022/10/14 03:49:54;;;;;;;1.48;1.38;;;19.60;62.90;;;;;;6263324;22;20019;-67
2022/10/14 03:52:19;;;;;;;1.55;1.42;;;19.60;62.90;;;;;;6264527;22;20081;-68
2022/10/14 03:54:45;;;;;;;1.90;1.27;;;19.60;62.80;;;;;;6234756;22;20023;-70
2022/10/14 03:57:11;;;;;;;1.40;1.30;;;19.60;62.90;;;;;;6264237;22;20023;-68
2022/10/14 03:59:37;;;;;;;1.55;1.40;;;19.60;62.90;;;;;;6262506;22;20030;-69
2022/10/14 04:02:03;;;;;;;1.70;1.52;;;19.60;62.80;;;;;;6262795;22;20011;-69
2022/10/14 04:04:29;;;;;;;1.50;1.30;;;19.60;62.80;;;;;;6234755;22;20024;-68
2022/10/14 04:06:54;;;;;;;2.17;1.55;;;19.60;62.80;;;;;;6264467;22;20015;-71
2022/10/14 04:09:20;;;;;;;1.90;1.30;;;19.60;62.80;;;;;;6264432;22;20039;-68
2022/10/14 04:11:45;;;;;;;1.77;1.50;;;19.60;62.80;;;;;;6263495;22;20023;-69
2022/10/14 04:14:11;;;;;;;1.83;1.30;;;19.60;62.80;;;;;;6263114;22;20008;-69
2022/10/14 04:16:36;;;;;;;1.48;1.38;;;19.60;62.80;;;;;;6236631;22;20023;-68
2022/10/14 04:19:02;;;;;;;1.20;1.10;;;19.60;62.70;;;;;;6264841;22;20475;-68
2022/10/14 04:21:28;;;;;;;1.50;1.40;;;19.60;62.70;;;;;;6236631;22;20343;-71
2022/10/14 04:23:53;;;;;;;1.58;1.48;;;19.60;62.70;;;;;;6237051;22;20395;-68
2022/10/14 04:26:19;;;;;;;1.75;1.38;;;19.60;62.70;;;;;;6263709;22;20494;-69
2022/10/14 04:28:47;;;;;;;1.75;1.40;;;19.60;62.70;;;;;;6263829;22;20008;-70
2022/10/14 04:31:13;;;;;;;1.30;1.02;;;19.60;62.70;;;;;;6264504;22;20031;-71
2022/10/14 04:33:38;;;;;;;1.45;1.30;;;19.60;62.70;;;;;;6261608;22;20014;-70
2022/10/14 04:36:05;;;;;;;1.52;1.17;;;19.60;62.60;;;;;;6265411;22;20066;-68
2022/10/14 04:38:31;;;;;;;1.67;1.30;;;19.60;62.60;;;;;;6261567;22;20012;-68
2022/10/14 04:40:58;;;;;;;2.03;1.20;;;19.60;62.60;;;;;;6237003;22;20252;-69
2022/10/14 04:43:24;;;;;;;1.30;1.20;;;19.60;62.60;;;;;;6260442;22;20110;-69
2022/10/14 04:45:50;;;;;;;2.92;1.30;;;19.60;62.60;;;;;;6209679;22;20111;-69
2022/10/14 04:48:17;;;;;;;1.50;1.20;;;19.60;62.60;;;;;;6263378;22;20080;-68
2022/10/14 04:50:43;;;;;;;1.52;1.10;;;19.60;62.60;;;;;;6235355;22;20042;-69
2022/10/14 04:53:08;;;;;;;1.23;1.10;;;19.60;62.50;;;;;;6263012;22;20359;-69
2022/10/14 04:55:34;;;;;;;1.30;1.20;;;19.60;62.50;;;;;;6263032;22;20016;-68
2022/10/14 04:58:00;;;;;;;2.10;1.30;;;19.60;62.50;;;;;;6262269;22;20019;-68
2022/10/14 05:00:29;;;;;;;1.45;1.20;;;19.60;62.50;;;;;;6235557;22;20096;-69
2022/10/14 05:02:55;;;;;;;1.40;1.30;;;19.60;62.50;;;;;;6264379;22;20012;-69
2022/10/14 05:05:20;;;;;;;1.88;1.38;;;19.60;62.50;;;;;;6262587;22;20022;-69
2022/10/14 05:07:46;;;;;;;1.88;1.45;;;19.60;62.40;;;;;;6263667;22;20323;-71
2022/10/14 05:10:11;;;;;;;1.75;1.55;;;19.50;62.40;;;;;;6235519;22;20434;-68
2022/10/14 05:12:38;;;;;;;1.60;1.20;;;19.50;62.30;;;;;;6262036;22;20324;-71
2022/10/14 05:15:04;;;;;;;1.45;1.20;;;19.50;62.30;;;;;;6236038;22;20081;-69
2022/10/14 05:17:31;;;;;;;1.60;1.30;;;19.50;62.30;;;;;;6262395;22;20027;-70
2022/10/14 05:19:56;;;;;;;1.40;1.30;;;19.60;62.30;;;;;;6262510;22;20032;-70
2022/10/14 05:22:22;;;;;;;1.70;1.40;;;19.60;62.30;;;;;;6263426;22;20485;-69
2022/10/14 05:24:47;;;;;;;2.13;1.30;;;19.60;62.30;;;;;;6236104;22;20015;-70
2022/10/14 05:27:13;;;;;;;1.33;1.20;;;19.60;62.30;;;;;;6263010;22;20486;-72
2022/10/14 05:29:39;;;;;;;2.05;1.30;;;19.50;62.20;;;;;;6262812;22;20018;-68
2022/10/14 05:32:04;;;;;;;1.90;1.50;;;19.50;62.20;;;;;;6264068;22;20421;-70
2022/10/14 05:34:30;;;;;;;1.48;1.17;;;19.50;62.20;;;;;;6260681;22;20371;-70
2022/10/14 05:36:55;;;;;;;1.88;1.30;;;19.60;62.20;;;;;;6211020;22;20016;-69
2022/10/14 05:39:21;;;;;;;1.60;1.20;;;19.50;62.20;;;;;;6260273;22;20026;-71
2022/10/14 05:41:47;;;;;;;2.15;1.40;;;19.50;62.10;;;;;;6263833;22;20086;-71
2022/10/14 05:44:12;;;;;;;1.63;1.52;;;19.50;62.10;;;;;;6263373;22;20019;-69
2022/10/14 05:46:39;;;;;;;1.63;1.30;;;19.50;62.10;;;;;;6262680;22;20082;-70
2022/10/14 05:49:05;;;;;;;1.63;1.20;;;19.50;62.10;;;;;;6236489;22;20402;-69
2022/10/14 05:51:32;;;;;;;2.63;1.25;;;19.50;62.10;;;;;;6261618;22;20161;-68
2022/10/14 05:53:58;;;;;;;1.77;1.35;;;19.50;62.10;;;;;;6263288;22;20121;-71
2022/10/14 05:56:24;;;;;;;1.67;1.30;;;19.50;62.10;;;;;;6261468;22;20019;-71
2022/10/14 05:58:49;;;;;;;1.45;1.30;;;19.50;62.10;;;;;;6263837;22;20015;-69
2022/10/14 06:01:15;;;;;;;1.70;1.50;;;19.50;62.10;;;;;;6262592;22;20023;-69
2022/10/14 06:03:41;;;;;;;2.20;1.40;;;19.50;62.10;;;;;;6261827;22;20461;-70
2022/10/14 06:06:12;;;;;;;1.80;1.50;;;19.50;62.00;;;;;;6235903;22;20096;-68
2022/10/14 06:08:37;;;;;;;1.80;1.40;;;19.50;62.00;;;;;;6262697;22;20051;-68
2022/10/14 06:11:03;;;;;;;2.20;1.40;;;19.50;62.00;;;;;;6263851;22;20027;-68
2022/10/14 06:13:29;;;;;;;2.25;1.65;;;19.50;62.00;;;;;;6234320;22;20023;-68
2022/10/14 06:15:54;;;;;;;2.88;1.75;;;19.50;62.00;;;;;;6268235;22;20077;-69
2022/10/14 06:18:20;;;;;;;1.88;1.48;;;19.50;62.00;;;;;;6270073;22;20090;-68
2022/10/14 06:20:53;;;;;;;3.42;1.77;;;19.50;62.00;;;;;;6259441;22;20020;-73
2022/10/14 06:23:18;;;;;;;2.22;1.67;;;19.50;62.00;;;;;;6262492;22;20019;-73
2022/10/14 06:25:44;;;;;;;6.35;1.80;;;19.50;62.00;;;;;;6259843;22;20790;-68
2022/10/14 06:28:10;;;;;;;2.92;1.63;;;19.50;62.10;;;;;;6237085;22;20035;-72
2022/10/14 06:30:35;;;;;;;3.25;1.67;;;19.50;62.10;;;;;;6259542;22;20055;-70
2022/10/14 06:33:01;;;;;;;6.70;1.75;;;19.50;62.20;;;;;;6263270;22;20092;-71
2022/10/14 06:35:26;;;;;;;4.75;1.73;;;19.50;62.20;;;;;;6260419;22;20481;-70
2022/10/14 06:37:52;;;;;;;3.13;1.50;;;19.40;62.20;;;;;;6264281;22;20099;-72
2022/10/14 06:40:17;;;;;;;3.42;1.85;;;19.40;62.20;;;;;;6262660;22;20047;-72
2022/10/14 06:42:43;;;;;;;3.60;1.80;;;19.40;62.20;;;;;;6261748;22;20856;-75
2022/10/14 06:45:12;;;;;;;2.45;2.10;;;19.40;62.20;;;;;;6237981;22;20448;-76
2022/10/14 06:47:37;;;;;;;;;;;19.50;62.30;;;;;;6236671;22;20031;-75
2022/10/14 06:50:03;;;;;;;2.65;1.80;;;19.50;62.30;;;;;;6265465;22;19981;-75
2022/10/14 06:52:29;;;;;;;4.20;2.00;;;19.50;62.30;;;;;;6237239;22;20312;-75
2022/10/14 06:54:54;;;;;;;2.78;1.80;;;19.50;62.40;;;;;;6238141;22;20030;-76
2022/10/14 06:57:20;;;;;;;6.07;2.60;;;19.50;62.40;;;;;;6237714;22;20015;-76
2022/10/14 06:59:46;;;;;;;2.72;1.90;;;19.50;62.40;;;;;;6238146;22;20030;-75
2022/10/14 07:02:11;;;;;;;3.95;2.10;;;19.50;62.40;;;;;;6262932;22;20026;-74
2022/10/14 07:04:38;;;;;;;3.58;2.15;;;19.50;62.50;;;;;;6264788;22;20086;-75
2022/10/14 07:07:05;;;;;;;4.93;2.40;;;19.50;62.50;;;;;;6237949;22;20063;-74
2022/10/14 07:09:31;;;;;;;3.67;2.08;;;19.60;62.60;;;;;;6262465;22;20027;-75
2022/10/14 07:11:56;;;;;;;3.38;2.20;;;19.60;62.60;;;;;;6236457;22;20020;-76
2022/10/14 07:14:22;;;;;;;2.30;1.75;;;19.60;62.50;;;;;;6236153;22;20927;-79
2022/10/14 07:16:48;;;;;;;9.77;2.75;;;19.50;62.50;;;;;;6265157;22;20081;-78
2022/10/14 07:19:13;;;;;;;3.20;2.10;;;19.60;62.60;;;;;;6235994;22;20028;-77
2022/10/14 07:21:40;;;;;;;3.05;1.85;;;19.60;62.50;;;;;;6264492;22;20111;-73
2022/10/14 07:24:07;;;;;;;4.43;2.38;;;19.60;62.60;;;;;;6236758;22;20015;-73
2022/10/14 07:26:32;;;;;;;4.93;2.25;;;19.60;62.60;;;;;;6263855;22;20177;-74
2022/10/14 07:28:58;;;;;;;3.70;2.30;;;19.60;62.60;;;;;;6238954;22;20174;-74
2022/10/14 07:31:25;;;;;;;4.60;2.20;;;19.60;62.70;;;;;;6262458;22;20019;-72
2022/10/14 07:33:50;;;;;;;3.53;2.15;;;19.70;62.80;;;;;;6238219;22;20947;-71
2022/10/14 07:36:17;;;;;;;4.35;2.50;;;19.70;62.90;;;;;;6265913;22;20070;-73
2022/10/14 07:38:47;;;;;;;6.07;2.30;;;19.70;63.00;;;;;;6239001;22;20059;-73
2022/10/14 07:41:19;;;;;;;5.47;3.00;;;19.70;63.10;;;;;;6264430;22;20081;-76
2022/10/14 07:43:48;;;;;;;5.85;2.70;;;19.70;63.10;;;;;;6264238;22;20045;-74
2022/10/14 07:46:15;;;;;;;6.85;3.10;;;19.70;63.20;;;;;;6264275;22;20095;-72
2022/10/14 07:48:41;;;;;;;5.70;2.50;;;19.70;63.20;;;;;;6236692;22;20328;-76
2022/10/14 07:51:07;;;;;;;7.38;3.08;;;19.70;63.30;;;;;;6237729;22;20023;-76
2022/10/14 07:53:34;;;;;;;8.23;3.42;;;19.70;63.20;;;;;;6233540;22;20020;-74
2022/10/14 07:56:00;;;;;;;4.97;2.83;;;19.80;63.40;;;;;;6264739;22;20026;-74
2022/10/14 07:58:28;;;;;;;7.63;3.00;;;19.80;63.30;;;;;;6263373;22;20012;-77
2022/10/14 08:00:54;;;;;;;3.85;2.90;;;19.80;63.40;;;;;;6264014;22;20015;-77
2022/10/14 08:03:21;;;;;;;4.00;2.88;;;19.80;63.30;;;;;;6264623;22;20011;-74
2022/10/14 08:05:49;;;;;;;9.90;3.22;;;19.80;63.40;;;;;;6236094;22;20110;-76
2022/10/14 08:08:16;;;;;;;9.57;3.22;;;19.80;63.40;;;;;;6265292;22;20024;-77
2022/10/14 08:10:42;;;;;;;4.97;2.87;;;19.80;63.40;;;;;;6262087;22;20065;-74
2022/10/14 08:13:08;;;;;;;12.70;2.92;;;19.80;63.40;;;;;;6265998;22;20032;-74
2022/10/14 08:15:37;;;;;;;4.53;2.83;;;19.80;63.40;;;;;;6261629;22;20479;-73
2022/10/14 08:18:04;;;;;;;6.15;2.83;;;19.80;63.40;;;;;;6264852;22;20019;-72
2022/10/14 08:20:31;;;;;;;4.10;2.80;;;19.80;63.30;;;;;;6262803;22;20011;-72
2022/10/14 08:22:57;;;;;;;7.40;3.20;;;19.80;63.20;;;;;;6264863;22;20039;-75
2022/10/14 08:25:23;;;;;;;5.45;2.85;;;19.80;63.20;;;;;;6263895;22;20012;-75
2022/10/14 08:27:50;;;;;;;12.52;3.58;;;19.80;63.20;;;;;;6263966;22;20015;-75
2022/10/14 08:30:16;;;;;;;15.32;3.25;;;19.80;63.10;;;;;;6265396;22;20035;-72
2022/10/14 08:32:45;;;;;;;7.50;3.00;;;19.80;63.10;;;;;;6236118;22;20089;-72
2022/10/14 08:35:11;;;;;;;7.03;3.00;;;19.80;63.10;;;;;;6237505;22;20023;-77
2022/10/14 08:37:37;;;;;;;6.57;3.00;;;19.80;63.10;;;;;;6235685;22;20019;-75
2022/10/14 08:40:04;;;;;;;7.43;3.10;;;19.80;63.20;;;;;;6236486;22;20054;-76
2022/10/14 08:43:13;;;;;;;5.97;2.70;;;19.80;63.20;;;;;;6263275;22;20408;-77
2022/10/14 08:45:51;;;;;;;12.90;2.85;;;19.90;63.20;;;;;;6235033;22;20035;-76
2022/10/14 08:48:21;;;;;;;6.20;2.85;;;19.80;63.20;;;;;;6236774;22;20120;-73
2022/10/14 08:51:10;;;;;;;5.38;2.80;;;19.90;63.30;;;;;;6236375;22;20026;-73
2022/10/14 08:53:42;;;;;;;6.78;3.15;;;19.90;63.20;;;;;;6262760;22;20016;-76
2022/10/14 08:56:11;;;;;;;5.57;2.97;;;19.90;63.30;;;;;;6212165;22;20637;-76
2022/10/14 08:58:41;;;;;;;6.40;2.95;;;19.90;63.40;;;;;;6263634;22;20466;-77
2022/10/14 09:01:28;;;;;;;6.65;3.47;;;19.90;63.40;;;;;;6263912;22;20113;-77
2022/10/14 09:04:04;;;;;;;4.93;2.67;;;19.90;63.40;;;;;;6263376;22;20059;-78
2022/10/14 09:06:33;;;;;;;6.18;2.97;;;19.90;63.40;;;;;;6261997;22;20020;-77
2022/10/14 09:09:05;;;;;;;5.38;3.03;;;19.90;63.40;;;;;;6264037;22;20420;-77
2022/10/14 09:11:37;;;;;;;14.13;3.30;;;19.90;63.40;;;;;;6235613;22;20078;-76
2022/10/14 09:14:08;;;;;;;8.20;2.65;;;19.90;63.40;;;;;;6264131;22;20022;-77
2022/10/14 09:16:37;;;;;;;3.78;2.63;;;19.90;63.60;;;;;;6235718;22;20015;-77
2022/10/14 09:19:22;;;;;;;7.10;2.90;;;19.90;63.50;;;;;;6263551;22;20047;-75
2022/10/14 09:21:53;;;;;;;3.70;2.75;;;19.90;63.40;;;;;;6263704;22;20102;-73
2022/10/14 09:24:26;;;;;;;3.97;3.05;;;19.90;63.50;;;;;;6262756;22;20018;-75
2022/10/14 09:26:56;;;;;;;4.03;2.47;;;19.90;63.40;;;;;;6263991;22;20073;-77
2022/10/14 09:29:32;;;;;;;4.32;2.45;;;20.00;63.40;;;;;;6234965;22;20007;-75
2022/10/14 09:32:08;;;;;;;5.63;3.10;;;20.00;63.40;;;;;;6262358;22;20042;-74
2022/10/14 09:34:49;;;;;;;5.60;3.10;;;20.00;63.30;;;;;;6263312;22;20356;-73
2022/10/14 09:37:33;;;;;;;4.13;3.00;;;19.90;63.30;;;;;;6263522;22;20220;-73
2022/10/14 09:40:19;;;;;;;5.10;3.08;;;20.00;63.30;;;;;;6264100;22;20463;-74
2022/10/14 09:43:08;;;;;;;6.38;2.60;;;19.90;63.20;;;;;;6234046;22;20032;-73
2022/10/14 09:45:49;;;;;;;5.40;3.25;;;19.90;63.20;;;;;;6233613;22;20083;-73
2022/10/14 09:48:22;;;;;;;4.20;3.03;;;19.90;63.30;;;;;;6210555;22;20478;-75
2022/10/14 09:50:51;;;;;;;7.35;3.05;;;19.90;63.20;;;;;;6261099;22;20094;-73
2022/10/14 09:53:45;;;;;;;7.25;3.03;;;19.90;63.30;;;;;;6236339;22;20446;-72
2022/10/14 09:56:12;;;;;;;7.18;2.97;;;19.90;63.20;;;;;;6250044;22;20756;-74
2022/10/14 09:58:41;;;;;;;13.43;3.35;;;19.90;63.30;;;;;;6236153;22;20020;-73
2022/10/14 10:01:14;;;;;;;5.45;3.30;;;19.90;63.30;;;;;;6263940;22;20047;-74
2022/10/14 10:03:40;;;;;;;3.90;2.53;;;19.90;63.30;;;;;;6262898;22;20066;-74
2022/10/14 10:06:09;;;;;;;7.15;3.05;;;19.90;63.30;;;;;;6264428;22;20020;-74
2022/10/14 10:08:38;;;;;;;4.88;3.10;;;19.90;63.30;;;;;;6262420;22;20035;-75
2022/10/14 10:11:10;;;;;;;4.32;3.17;;;19.90;63.30;;;;;;6237601;22;20020;-75
2022/10/14 10:13:45;;;;;;;6.07;3.17;;;19.90;63.30;;;;;;6263391;22;20091;-74
2022/10/14 10:16:18;;;;;;;7.18;3.20;;;19.90;63.30;;;;;;6234920;22;20020;-75
2022/10/14 10:18:44;;;;;;;5.38;3.30;;;19.90;63.30;;;;;;6264384;22;20035;-75
2022/10/14 10:21:19;;;;;;;6.07;3.13;;;19.80;63.20;;;;;;6261365;22;20019;-75
2022/10/14 10:23:58;;;;;;;4.40;3.03;;;19.90;63.30;;;;;;6262518;22;20022;-74
2022/10/14 10:26:32;;;;;;;6.65;3.40;;;19.90;63.30;;;;;;6235027;22;20328;-74
2022/10/14 10:29:04;;;;;;;4.07;2.85;;;19.80;63.20;;;;;;6236560;22;20023;-75
2022/10/14 10:31:32;;;;;;;4.70;2.85;;;19.80;63.20;;;;;;6235800;22;20074;-74
2022/10/14 10:34:23;;;;;;;5.13;3.13;;;19.80;63.20;;;;;;6262196;22;20417;-74
2022/10/14 10:36:56;;;;;;;6.78;3.17;;;19.80;63.20;;;;;;6264335;22;20022;-75
2022/10/14 10:40:07;;;;;;;3.45;2.70;;;19.80;63.20;;;;;;6262511;22;20074;-73
2022/10/14 10:42:50;;;;;;;10.27;2.90;;;19.80;63.20;;;;;;6236053;22;20077;-75
2022/10/14 10:45:48;;;;;;;5.75;3.38;;;19.80;63.20;;;;;;6236426;22;20344;-74
2022/10/14 10:48:19;;;;;;;5.38;3.30;;;19.80;63.20;;;;;;6263052;22;20020;-72
2022/10/14 10:51:03;;;;;;;5.90;3.10;;;19.80;63.30;;;;;;6236463;22;20024;-74
2022/10/14 10:53:54;;;;;;;4.25;3.22;;;19.80;63.40;;;;;;6235957;22;20023;-74
2022/10/14 10:56:26;;;;;;;5.00;2.75;;;19.80;63.40;;;;;;6262042;22;20077;-75
2022/10/14 10:59:07;;;;;;;7.03;3.25;;;19.80;63.40;;;;;;6235517;22;20440;-75
2022/10/14 11:01:46;;;;;;;4.53;3.50;;;19.80;63.40;;;;;;6261321;22;20016;-76
2022/10/14 11:04:31;;;;;;;;;;;19.80;63.60;;;;;;6235743;22;20565;-75
2022/10/14 11:13:29;;;;;;;14.45;3.50;;;19.90;63.80;;;;;;6261988;22;20032;-74
2022/10/14 11:16:26;;;;;;;12.35;4.13;;;19.90;64.00;;;;;;6261965;22;20598;-76
2022/10/14 11:19:09;;;;;;;8.23;3.70;;;19.90;64.00;;;;;;6263046;22;20081;-78
2022/10/14 11:22:00;;;;;;;7.63;3.75;;;19.80;63.90;;;;;;6263889;22;20028;-76
2022/10/14 11:24:53;;;;;;;6.10;3.90;;;19.90;63.90;;;;;;6236231;22;20023;-76
2022/10/14 11:27:30;;;;;;;11.32;3.90;;;19.80;63.80;;;;;;6262634;22;20016;-72
2022/10/14 11:30:17;;;;;;;8.65;3.63;;;19.90;64.00;;;;;;6238566;22;20028;-73
2022/10/14 11:33:15;;;;;;;7.10;3.67;;;19.90;64.10;;;;;;6238772;22;20444;-74
2022/10/14 11:35:54;;;;;;;8.10;3.75;;;19.90;64.10;;;;;;6264610;22;20170;-77
2022/10/14 11:38:43;;;;;;;9.95;4.22;;;19.90;64.10;;;;;;6265859;22;20115;-75
2022/10/14 11:41:26;;;;;;;12.27;4.28;;;19.90;64.20;;;;;;6237577;22;20077;-79
2022/10/14 11:44:07;;;;;;;11.88;4.03;;;19.90;64.20;;;;;;6236524;22;20157;-70
2022/10/14 11:46:41;;;;;;;6.90;4.03;;;19.90;64.40;;;;;;6264305;22;20407;-71
2022/10/14 11:49:23;;;;;;;8.57;4.38;;;19.90;64.40;;;;;;6263877;22;20406;-71
2022/10/14 11:51:57;;;;;;;10.40;4.20;;;20.00;64.70;;;;;;6237706;22;20046;-73
2022/10/14 11:54:44;;;;;;;9.82;4.40;;;20.00;64.70;;;;;;6261916;22;20054;-72
2022/10/14 11:57:37;;;;;;;20.00;4.73;;;20.00;64.90;;;;;;6235805;22;20292;-76
2022/10/14 12:00:16;;;;;;;10.65;4.53;;;20.00;65.00;;;;;;6212726;22;20103;-77
2022/10/14 12:02:47;;;;;;;10.00;4.03;;;20.00;65.10;;;;;;6237529;22;20129;-77
2022/10/14 12:05:18;;;;;;;9.00;4.22;;;20.00;65.00;;;;;;6265802;22;20493;-80
2022/10/14 12:08:01;;;;;;;12.07;4.57;;;20.00;65.10;;;;;;6238260;22;20015;-78
2022/10/14 12:10:37;;;;;;;11.13;4.53;;;20.00;65.30;;;;;;6264681;22;20077;-81
2022/10/14 12:13:10;;;;;;;10.70;4.30;;;20.10;65.40;;;;;;6266138;22;20020;-78
2022/10/14 12:15:39;;;;;;;19.33;4.50;;;20.00;65.40;;;;;;6236870;22;20023;-82
2022/10/14 12:18:04;;;;;;;10.98;4.25;;;20.00;65.50;;;;;;6239216;22;20026;-80
2022/10/14 12:20:54;;;;;;;7.82;4.30;;;20.00;65.50;;;;;;6237929;22;20027;-86
2022/10/14 12:23:45;;;;;;;12.52;4.20;;;20.10;65.70;;;;;;6214621;22;20019;-78
2022/10/14 12:26:23;;;;;;;7.88;4.47;;;20.10;65.70;;;;;;6237949;22;20496;-81
2022/10/14 12:28:50;;;;;;;15.15;4.63;;;20.00;65.70;;;;;;6264198;22;20055;-77
2022/10/14 12:31:39;;;;;;;8.48;4.25;;;20.00;65.70;;;;;;6263353;22;20022;-76
2022/10/14 12:34:13;;;;;;;8.77;4.40;;;20.10;65.80;;;;;;6245622;22;20038;-79
2022/10/14 12:36:42;;;;;;;5.57;4.18;;;20.10;65.90;;;;;;6262993;22;20382;-76
2022/10/14 12:39:17;;;;;;;8.50;4.50;;;20.10;66.60;;;;;;6264113;22;20035;-74
2022/10/14 12:41:56;;;;;;;6.93;4.90;;;20.10;66.00;;;;;;6264023;22;20084;-76
2022/10/14 12:44:28;;;;;;;6.93;4.60;;;20.00;66.00;;;;;;6235819;22;20436;-79
2022/10/14 12:46:53;;;;;;;9.93;4.38;;;20.10;66.00;;;;;;6236745;22;20027;-78
2022/10/14 12:49:31;;;;;;;6.50;4.28;;;20.00;66.10;;;;;;6262585;22;20122;-81
2022/10/14 12:52:01;;;;;;;6.45;4.47;;;20.00;66.10;;;;;;6237698;22;20026;-76
2022/10/14 12:54:30;;;;;;;12.52;5.00;;;20.10;66.20;;;;;;6234711;22;20024;-78
2022/10/14 12:57:00;;;;;;;7.60;5.25;;;20.10;66.30;;;;;;6263770;22;20592;-76
2022/10/14 12:59:38;;;;;;;7.85;5.32;;;20.10;66.40;;;;;;6211959;22;20015;-77
2022/10/14 13:02:14;;;;;;;8.60;5.70;;;20.10;66.40;;;;;;6235182;22;20011;-75
2022/10/14 13:04:51;;;;;;;7.20;5.28;;;20.10;66.50;;;;;;6264188;22;20019;-81
2022/10/14 13:07:17;;;;;;;9.70;5.40;;;20.10;66.50;;;;;;6262342;22;20647;-82
2022/10/14 13:09:46;;;;;;;10.27;5.50;;;20.10;66.50;;;;;;6264884;22;20062;-78
2022/10/14 13:12:18;;;;;;;18.33;6.20;;;20.00;66.50;;;;;;6263502;22;20347;-80
2022/10/14 13:15:04;;;;;;;8.38;5.53;;;20.10;66.60;;;;;;6236586;22;20447;-74